AirNav   Pilot Hours Calculator
 
 1532 users online  

2R0 Waynesboro Municipal Airport
Waynesboro, Mississippi, USA

GOING TO WAYNESBORO?


FAA INFORMATION EFFECTIVE 16 JUNE 2022

Location

FAA Identifier: 2R0
Lat/Long: 31-38-36.7940N 088-38-06.3420W
31-38.613233N 088-38.105700W
31.6435539,-88.6350950
(estimated)
Elevation: 168.5 ft. / 51 m (estimated)
Variation: 02E (1985)
From city: 2 miles S of WAYNESBORO, MS
Time zone: UTC -5 (UTC -6 during Standard Time)
Zip code: 39367

Airport Operations

Airport use: Open to the public
Activation date: 09/1964
Control tower: no
ARTCC: MEMPHIS CENTER
FSS: GREENWOOD FLIGHT SERVICE STATION
NOTAMs facility: GWO (NOTAM-D service available)
Attendance: M-F 0600-1400
AFT HRS SVC CTC AMGR 410-404-8959.
Wind indicator: lighted
Segmented circle: yes
Lights: ACTVT PAPI RWY 02 & 20; MIRL RWY 02/20 - CTAF.
Beacon: white-green (lighted land airport)
Operates sunset to sunrise.

Airport Communications

CTAF/UNICOM: 122.8

Airport Services

Fuel available: 100LL
100LL:24 HR CREDIT CARD SVC AVBL.
Bottled oxygen: NONE
Bulk oxygen: NONE

Runway Information

Runway 2/20

Dimensions: 5000 x 75 ft. / 1524 x 23 m
Surface: asphalt, in good condition
Weight bearing capacity: 
Single wheel: 15.0
Runway edge lights: medium intensity
RUNWAY 2  RUNWAY 20
Latitude: 31-38.231117N31-38.995350N
Longitude: 088-38.286817W088-37.924567W
Elevation: 167.0 ft.168.5 ft.
Traffic pattern: leftleft
Runway heading: 020 magnetic, 022 true200 magnetic, 202 true
Displaced threshold: no665 ft.
Markings: nonprecision, in good conditionnonprecision, in good condition
Visual slope indicator: 2-light PAPI on left2-light PAPI on left
Touchdown point: yes, no lightsyes, no lights
Obstructions: 73 ft. trees, 1700 ft. from runway, 100 ft. right of centerline, 20:1 slope to clear23 ft. rr, 600 ft. from runway, 17:1 slope to clear
APCH RATIO 50+:1 TO DTHR.

Airport Ownership and Management from official FAA records

Ownership: Publicly-owned
Owner: CITY OF WAYNESBORO
714 WAYNE ST
WAYNESBORO, MS 39367
Phone 601-735-4874
Manager: RANDY PITTS
714 WAYNE ST
WAYNESBORO, MS 39367
Phone 601-735-9682

Airport Operational Statistics

Aircraft based on the field: 10
Single engine airplanes: 8
Multi engine airplanes: 2
    
Aircraft operations: avg 48/week *
51% local general aviation
43% transient general aviation
6% military
* for 12-month period ending 31 March 2022

Additional Remarks

FOR CD CTC MEMPHIS ARTCC AT 901-368-8453/8449.
WILDLIFE NR RWY 20.

Instrument Procedures

There are no published instrument procedures at 2R0.

Some nearby airports with instrument procedures:

5R1 - Roy Wilcox Airport (25 nm SE)
KLUL - Hesler-Noble Field Airport (28 nm W)
KPIB - Hattiesburg/Laurel Regional Airport (37 nm W)
09A - Butler/Choctaw County Airport (39 nm NE)
KHBG - Hattiesburg Bobby L Chain Municipal Airport (39 nm SW)
 
Loc | Ops | Rwys | IFR | FBO | Links
Com | Nav | Svcs | Stats | Notes
Area around 2R0 (Waynesboro Municipal Airport)
 
Road maps at: MapQuest Bing Google
 
Aerial photo
WARNING: Photo may not be current or correct
Aerial photo of 2R0 (Waynesboro Municipal Airport)
Do you have a better or more recent aerial photo of Waynesboro Municipal Airport that you would like to share? If so, please send us your photo.

 
Sectional chart

 
Airport distance calculator
Flying to Waynesboro Municipal Airport? Find the distance to fly.

From to 2R0

Sunrise and sunset
Times for 28-Jun-2022
 Local
(UTC-5)
 Zulu
(UTC)
Morning civil twilight05:2510:25
Sunrise05:5310:53
Sunset20:0301:03
Evening civil twilight20:3101:31

Current date and time
Zulu (UTC)  28-Jun-2022 14:54:54
Local (UTC-5)  28-Jun-2022 09:54:54
 
METAR
KPIB 
36nm W 
281356Z AUTO 03006KT 10SM CLR 24/24 A3012 RMK AO2 SLP195 T02440239
KLUL 
37nm W 
281435Z AUTO 05005KT 10SM CLR 25/22 A3011 RMK A02 T02540224
KHBG 
39nm SW 
281353Z AUTO 06004KT 10SM CLR 27/22 A3009 RMK AO2 SLP187 T02670217
KMEI 
42nm N 
281358Z 04005KT 10SM CLR 24/19 A3012 RMK AO2 SLP195 T02390189
TAF
KPIB 
36nm W 
281120Z 2812/2912 00000KT 5SM BR FEW002 SCT050 BKN090 FM281300 01005KT P6SM BKN050 FM281800 04006KT P6SM VCSH BKN050 OVC100 FM282000 05005KT 4SM TSRA BKN050CB FM290000 00000KT P6SM -RA SCT070 OVC120 FM290400 00000KT P6SM OVC250
KHBG 
39nm SW 
281120Z 2812/2912 01005KT P6SM FEW050 SCT090 FM281800 04006KT P6SM VCSH BKN050 OVC100 FM282000 05005KT 4SM TSRA BKN050CB FM290000 00000KT P6SM -RA SCT070 OVC120 FM290400 00000KT P6SM OVC250
KMEI 
42nm N 
281120Z 2812/2912 01006KT P6SM FEW050 BKN120 FM281800 04007KT P6SM BKN050 PROB30 2821/2824 4SM TSRA BKN050CB
NOTAMs
Click for the latest NOTAMs
NOTAMs are issued by the DoD/FAA and will open in a separate window not controlled by AirNav.

 

 
 

FBO, Fuel Providers, and Aircraft Ground Support

  
 Business Name 
 
 Contact 
 
 Services / Description 
 
Fuel Prices
 
Comments
  
Waynesboro Municipal Airport 601-735-9682
no information available

If you are affiliated with Waynesboro Municipal Airport and would like to show here your services, contact info, web link, logo, and more, click here
100LL
SS $5.99 
 Updated 15-Jun-2022
 
   1 read write
SS=Self service
Update Fuel Prices
 

Would you like to see your business listed on this page?

 If your business provides an interesting product or service to pilots, flight crews, aircraft, or users of the Waynesboro Municipal Airport, you should consider listing it here.  To start the listing process, click on the button below
 
Add a business
 

Other Pages about Waynesboro Municipal Airport

Update a link
 
Copyright © AirNav, LLC. All rights reserved. Privacy Policy  Contact